Time;durP1;ratioP1;P1;durP2;ratioP2;P2;SDS_P1;SDS_P2;PMS_P1;PMS_P2;Temp;Humidity;BMP_temperature;BMP_pressure;BME280_temperature;BME280_humidity;BME280_pressure;Samples;Min_cycle;Max_cycle;Signal;HPM_P1;HPM_P2
2021/07/16 16:06:23;;;;;;;9.18;3.95;;;21.60;99.90;;;;;;5067993;28;20455;-77
2021/07/16 16:08:48;;;;;;;10.13;4.13;;;21.70;99.90;;;;;;5068039;28;20465;-76
2021/07/16 16:11:15;;;;;;;9.20;3.85;;;21.70;99.90;;;;;;5067885;28;20107;-76
2021/07/16 16:13:41;;;;;;;8.18;3.90;;;21.70;99.90;;;;;;5065878;28;20055;-77
2021/07/16 16:16:07;;;;;;;7.90;3.17;;;21.80;99.90;;;;;;5065547;28;20124;-76
2021/07/16 16:18:33;;;;;;;8.32;4.05;;;21.80;99.90;;;;;;5065451;28;20120;-75
2021/07/16 16:21:00;;;;;;;7.63;3.90;;;21.90;99.90;;;;;;5065487;28;20099;-79
2021/07/16 16:23:26;;;;;;;7.50;4.00;;;21.90;99.90;;;;;;5068122;28;20024;-76
2021/07/16 16:25:52;;;;;;;8.52;3.97;;;21.90;99.90;;;;;;5068257;28;20033;-77
2021/07/16 16:28:17;;;;;;;8.70;4.03;;;22.00;99.90;;;;;;5068437;28;20100;-77
2021/07/16 16:30:43;;;;;;;10.68;4.40;;;22.00;99.90;;;;;;5068152;28;20029;-77
2021/07/16 16:33:09;;;;;;;7.20;3.83;;;22.00;99.90;;;;;;5068615;28;20016;-77
2021/07/16 16:35:34;;;;;;;9.93;4.53;;;22.00;99.90;;;;;;5068452;28;20500;-77
2021/07/16 16:38:00;;;;;;;11.38;4.03;;;22.10;99.90;;;;;;5068200;28;20068;-77
2021/07/16 16:40:26;;;;;;;13.02;4.45;;;22.10;99.90;;;;;;5068139;28;20389;-75
2021/07/16 16:42:51;;;;;;;9.93;3.97;;;22.10;99.90;;;;;;5066808;28;20114;-77
2021/07/16 16:45:19;;;;;;;9.18;3.90;;;22.10;99.90;;;;;;5067857;28;20481;-78
2021/07/16 16:47:46;;;;;;;9.48;3.80;;;22.10;99.90;;;;;;5067800;28;20486;-77
2021/07/16 16:50:13;;;;;;;11.30;4.75;;;22.10;99.90;;;;;;5060343;28;20099;-78
2021/07/16 16:52:39;;;;;;;10.20;3.90;;;22.10;99.90;;;;;;5050614;28;20405;-74
2021/07/16 16:55:07;;;;;;;8.98;4.00;;;22.10;99.90;;;;;;5067660;28;20384;-72
2021/07/16 16:57:34;;;;;;;8.75;4.20;;;22.10;99.90;;;;;;5067772;28;20046;-73
2021/07/16 17:00:00;;;;;;;10.38;4.25;;;22.10;99.90;;;;;;5065559;28;20499;-75
2021/07/16 17:02:26;;;;;;;11.10;4.20;;;22.10;99.90;;;;;;5065819;28;20115;-75
2021/07/16 17:04:51;;;;;;;9.60;4.07;;;22.10;99.90;;;;;;5065802;28;20127;-75
2021/07/16 17:07:17;;;;;;;10.82;3.95;;;22.10;99.90;;;;;;5067632;28;20025;-72
2021/07/16 17:09:42;;;;;;;11.85;4.45;;;22.00;99.90;;;;;;5066993;28;20025;-74
2021/07/16 17:12:09;;;;;;;10.88;4.20;;;22.10;99.90;;;;;;5070638;28;20409;-75
2021/07/16 17:14:34;;;;;;;9.02;3.75;;;22.10;99.90;;;;;;5070647;28;20029;-74
2021/07/16 17:17:00;;;;;;;8.35;4.10;;;22.10;99.90;;;;;;5050268;28;20652;-76
2021/07/16 17:19:25;;;;;;;11.07;4.45;;;22.10;99.90;;;;;;5047930;28;20021;-73
2021/07/16 17:21:51;;;;;;;11.07;4.05;;;22.20;99.90;;;;;;5051072;28;20112;-76
2021/07/16 17:24:17;;;;;;;10.90;4.13;;;22.30;99.90;;;;;;5052241;28;20398;-77
2021/07/16 17:26:44;;;;;;;10.05;4.10;;;22.30;99.90;;;;;;5052228;28;20033;-78
2021/07/16 17:29:10;;;;;;;10.65;4.18;;;22.20;99.90;;;;;;5052685;28;20423;-73
2021/07/16 17:31:37;;;;;;;9.68;3.95;;;22.20;99.90;;;;;;5052580;28;20024;-77
2021/07/16 17:34:04;;;;;;;8.38;4.00;;;22.20;99.90;;;;;;5052400;28;20025;-73
2021/07/16 17:36:30;;;;;;;7.40;3.78;;;22.20;99.90;;;;;;5052134;28;20393;-78
2021/07/16 17:38:56;;;;;;;9.25;4.15;;;22.30;99.90;;;;;;5051863;28;20017;-78
2021/07/16 17:41:23;;;;;;;10.40;3.92;;;22.40;99.90;;;;;;5052236;28;20037;-78
2021/07/16 17:43:48;;;;;;;8.48;3.60;;;22.40;99.90;;;;;;5051713;28;20033;-77
2021/07/16 17:46:14;;;;;;;7.72;3.83;;;22.40;99.90;;;;;;5053410;28;20033;-76
2021/07/16 17:48:40;;;;;;;9.48;3.97;;;22.40;99.90;;;;;;5052281;28;20104;-72
2021/07/16 17:51:05;;;;;;;9.80;4.03;;;22.40;99.90;;;;;;5052934;28;20021;-75
2021/07/16 17:53:31;;;;;;;11.07;4.50;;;22.40;99.90;;;;;;5056068;28;20020;-76
2021/07/16 17:55:57;;;;;;;9.93;4.30;;;22.40;99.90;;;;;;5055036;28;20078;-74
2021/07/16 17:58:22;;;;;;;11.65;4.38;;;22.40;99.90;;;;;;5051493;28;20035;-74
2021/07/16 18:00:49;;;;;;;11.30;4.78;;;22.50;99.90;;;;;;5052185;28;20021;-74
2021/07/16 18:03:14;;;;;;;9.27;4.00;;;22.60;99.90;;;;;;5052806;28;20064;-76
2021/07/16 18:05:41;;;;;;;10.40;4.72;;;22.50;99.90;;;;;;5050835;28;20060;-75
2021/07/16 18:08:07;;;;;;;11.02;4.35;;;22.60;99.90;;;;;;5053627;28;20021;-73
2021/07/16 18:10:33;;;;;;;12.68;4.65;;;22.60;99.90;;;;;;5052889;28;20032;-75
2021/07/16 18:13:07;;;;;;;10.57;5.00;;;22.60;99.90;;;;;;5053174;28;20465;-74
2021/07/16 18:15:35;;;;;;;11.10;4.82;;;22.60;99.90;;;;;;5052908;28;20025;-75
2021/07/16 18:18:09;;;;;;;11.05;4.70;;;22.50;99.90;;;;;;5052660;28;20025;-77
2021/07/16 18:20:40;;;;;;;15.43;5.00;;;22.40;99.90;;;;;;5051510;28;20060;-76
2021/07/16 18:23:07;;;;;;;10.55;4.72;;;22.40;99.90;;;;;;5052666;28;20047;-76
2021/07/16 18:25:35;;;;;;;10.20;4.50;;;22.50;99.90;;;;;;5052425;28;20029;-75
2021/07/16 18:28:01;;;;;;;13.20;5.10;;;22.50;99.90;;;;;;5050619;28;20108;-73
2021/07/16 18:30:28;;;;;;;10.77;4.55;;;22.60;99.90;;;;;;5052724;28;20116;-72
2021/07/16 18:32:56;;;;;;;10.65;4.20;;;22.60;99.90;;;;;;5052212;28;20025;-72
2021/07/16 18:35:21;;;;;;;10.85;4.10;;;22.50;99.90;;;;;;5052303;28;20033;-73
2021/07/16 18:37:48;;;;;;;12.00;4.25;;;22.50;99.90;;;;;;5051725;28;20032;-74
2021/07/16 18:40:14;;;;;;;10.52;4.88;;;22.50;99.90;;;;;;5052314;28;20029;-72
2021/07/16 18:42:40;;;;;;;10.20;4.35;;;22.50;99.90;;;;;;5051194;28;20062;-73
2021/07/16 18:45:08;;;;;;;11.88;4.35;;;22.60;99.90;;;;;;5050263;28;20029;-70
2021/07/16 18:47:34;;;;;;;9.10;4.35;;;22.60;99.90;;;;;;5052636;28;20135;-75
2021/07/16 18:50:00;;;;;;;10.98;4.60;;;22.80;99.90;;;;;;5031782;28;20612;-74
2021/07/16 18:52:26;;;;;;;9.35;4.70;;;22.70;99.90;;;;;;5051570;28;20100;-74
2021/07/16 18:54:52;;;;;;;10.25;4.63;;;22.60;99.90;;;;;;5051087;28;20098;-74
2021/07/16 18:57:19;;;;;;;8.05;4.32;;;22.60;99.90;;;;;;5051155;28;20036;-75
2021/07/16 18:59:45;;;;;;;10.82;4.70;;;22.60;99.90;;;;;;5048381;28;20040;-75
2021/07/16 19:02:11;;;;;;;9.68;4.03;;;22.60;99.90;;;;;;5049161;28;20102;-76
2021/07/16 19:04:37;;;;;;;9.57;4.15;;;22.70;99.90;;;;;;5050906;28;20055;-75
2021/07/16 19:07:06;;;;;;;10.65;4.45;;;22.70;99.90;;;;;;5050955;28;20025;-75
2021/07/16 19:09:35;;;;;;;8.95;4.15;;;22.70;99.90;;;;;;5050380;28;20044;-75
2021/07/16 19:12:01;;;;;;;10.00;4.72;;;22.70;99.90;;;;;;5047932;28;20021;-75
2021/07/16 19:14:27;;;;;;;10.45;4.03;;;22.70;99.90;;;;;;5049817;28;20055;-76
2021/07/16 19:16:52;;;;;;;10.18;4.47;;;22.70;99.90;;;;;;5049717;28;20447;-75
2021/07/16 19:19:18;;;;;;;9.65;4.70;;;22.70;99.90;;;;;;5050921;28;20436;-75
2021/07/16 19:21:45;;;;;;;12.15;5.43;;;22.70;99.90;;;;;;5050992;28;20469;-77
2021/07/16 19:24:10;;;;;;;12.80;4.50;;;22.80;99.90;;;;;;5051326;28;20020;-75
2021/07/16 19:26:36;;;;;;;10.63;4.95;;;22.70;99.90;;;;;;5051856;28;20040;-76
2021/07/16 19:29:01;;;;;;;10.48;4.80;;;22.70;99.90;;;;;;5051292;28;20358;-76
2021/07/16 19:31:27;;;;;;;13.15;5.28;;;22.70;99.90;;;;;;5051271;28;20497;-73
2021/07/16 19:33:53;;;;;;;14.55;5.60;;;22.70;99.90;;;;;;5049434;28;20489;-73
2021/07/16 19:36:19;;;;;;;14.38;5.68;;;22.60;99.90;;;;;;5038963;28;20465;-77
2021/07/16 19:38:45;;;;;;;17.10;5.82;;;22.60;99.90;;;;;;5049828;28;20020;-74
2021/07/16 19:41:11;;;;;;;13.88;4.70;;;22.70;99.90;;;;;;5035735;28;20024;-75
2021/07/16 19:43:37;;;;;;;15.32;6.25;;;22.60;99.90;;;;;;5038533;28;20033;-75
2021/07/16 19:46:03;;;;;;;12.82;5.80;;;22.60;99.90;;;;;;5046984;28;20033;-74
2021/07/16 19:48:28;;;;;;;16.38;6.00;;;22.60;99.90;;;;;;5052759;28;20021;-76
2021/07/16 19:50:54;;;;;;;12.20;4.75;;;22.60;99.90;;;;;;5070986;28;20024;-76
2021/07/16 19:53:20;;;;;;;12.20;5.55;;;22.60;99.90;;;;;;5071008;28;20024;-75
2021/07/16 19:55:47;;;;;;;11.85;5.43;;;22.60;99.90;;;;;;5069480;28;20032;-74
2021/07/16 19:58:14;;;;;;;13.70;6.03;;;22.60;99.90;;;;;;5051205;28;20469;-74
2021/07/16 20:00:40;;;;;;;13.32;5.93;;;22.60;99.90;;;;;;5055560;28;20029;-74
2021/07/16 20:03:06;;;;;;;13.82;5.53;;;22.50;99.90;;;;;;5052689;28;20025;-75
2021/07/16 20:05:31;;;;;;;12.45;5.55;;;22.60;99.90;;;;;;5050898;28;20049;-77
2021/07/16 20:07:57;;;;;;;13.50;5.57;;;22.60;99.90;;;;;;5049842;28;20051;-74
2021/07/16 20:10:26;;;;;;;11.70;5.30;;;22.60;99.90;;;;;;5050490;28;20037;-75
2021/07/16 20:12:52;;;;;;;12.07;5.18;;;22.60;99.90;;;;;;5049255;28;20029;-76
2021/07/16 20:15:17;;;;;;;12.65;5.35;;;22.60;99.90;;;;;;5050690;28;20025;-76
2021/07/16 20:17:44;;;;;;;12.95;5.20;;;22.50;99.90;;;;;;5050792;28;20021;-75
2021/07/16 20:20:15;;;;;;;12.60;5.88;;;22.50;99.90;;;;;;5068601;28;20035;-74
2021/07/16 20:22:41;;;;;;;14.52;5.30;;;22.50;99.90;;;;;;5070175;28;20017;-75
2021/07/16 20:25:07;;;;;;;8.75;4.47;;;22.50;99.90;;;;;;5049228;28;20037;-76
2021/07/16 20:27:34;;;;;;;14.20;5.25;;;22.50;99.90;;;;;;5050239;28;20031;-76
2021/07/16 20:30:00;;;;;;;12.07;5.15;;;22.40;99.90;;;;;;5057319;28;20461;-75
2021/07/16 20:32:26;;;;;;;9.77;4.90;;;22.40;99.90;;;;;;5064697;28;20055;-76
2021/07/16 20:34:51;;;;;;;10.15;5.03;;;22.40;99.90;;;;;;5049252;28;20496;-75
2021/07/16 20:37:17;;;;;;;10.77;5.05;;;22.30;99.90;;;;;;5066903;28;20128;-76
2021/07/16 20:39:44;;;;;;;13.40;5.05;;;22.30;99.90;;;;;;5057645;28;20036;-76
2021/07/16 20:42:09;;;;;;;10.07;5.22;;;22.30;99.90;;;;;;5047931;28;20452;-76
2021/07/16 20:44:35;;;;;;;11.35;4.90;;;22.30;99.90;;;;;;5047838;28;20100;-76
2021/07/16 20:47:01;;;;;;;13.10;5.07;;;22.20;99.90;;;;;;5050425;28;20025;-76
2021/07/16 20:49:26;;;;;;;10.10;4.97;;;22.20;99.90;;;;;;5049584;28;20056;-76
2021/07/16 20:51:52;;;;;;;11.65;5.15;;;22.20;99.90;;;;;;5061023;28;20036;-76
2021/07/16 20:54:17;;;;;;;10.45;4.88;;;22.20;99.90;;;;;;5073998;28;20020;-76
2021/07/16 20:56:43;;;;;;;14.90;5.47;;;22.20;99.90;;;;;;5072221;28;20462;-69
2021/07/16 20:59:13;;;;;;;10.75;5.45;;;22.30;99.90;;;;;;5054305;28;20021;-71
2021/07/16 21:01:41;;;;;;;9.30;4.50;;;22.30;99.90;;;;;;5068804;28;20033;-72
2021/07/16 21:04:07;;;;;;;12.23;4.65;;;22.40;99.90;;;;;;5053828;28;20070;-70
2021/07/16 21:06:33;;;;;;;10.82;4.93;;;22.40;99.90;;;;;;5053796;28;20029;-71
2021/07/16 21:09:00;;;;;;;9.73;4.80;;;22.40;99.90;;;;;;5053516;28;20377;-70
2021/07/16 21:11:26;;;;;;;10.48;5.20;;;22.40;99.90;;;;;;5057370;28;20381;-78
2021/07/16 21:13:52;;;;;;;9.38;4.72;;;22.50;99.90;;;;;;5072351;28;20024;-71
2021/07/16 21:16:18;;;;;;;7.47;4.18;;;22.50;99.90;;;;;;5054410;28;20486;-69
2021/07/16 21:18:43;;;;;;;9.15;4.70;;;22.40;99.90;;;;;;5052902;28;20465;-71
2021/07/16 21:21:09;;;;;;;12.25;5.15;;;22.40;99.90;;;;;;5053937;28;20092;-68
2021/07/16 21:23:35;;;;;;;10.30;4.50;;;22.40;99.90;;;;;;5053920;28;20017;-72
2021/07/16 21:26:01;;;;;;;9.43;4.95;;;22.40;99.90;;;;;;5052848;28;20033;-73
2021/07/16 21:28:27;;;;;;;11.02;4.93;;;22.40;99.90;;;;;;5057198;28;21477;-75
2021/07/16 21:30:52;;;;;;;8.80;4.35;;;22.40;99.90;;;;;;5053049;28;20032;-77
2021/07/16 21:33:18;;;;;;;10.93;4.88;;;22.40;99.90;;;;;;5053273;28;20057;-74
2021/07/16 21:35:43;;;;;;;9.45;5.07;;;22.50;99.90;;;;;;5053106;28;20043;-72
2021/07/16 21:38:09;;;;;;;12.00;4.82;;;22.40;99.90;;;;;;5053512;28;20029;-74
2021/07/16 21:40:35;;;;;;;9.68;4.63;;;22.40;99.90;;;;;;5053172;28;20025;-72
2021/07/16 21:43:02;;;;;;;9.68;4.93;;;22.40;99.90;;;;;;5052447;28;20032;-71
2021/07/16 21:45:28;;;;;;;11.88;4.88;;;22.40;99.90;;;;;;5052846;28;20124;-68
2021/07/16 21:47:54;;;;;;;10.82;4.57;;;22.40;99.90;;;;;;5052740;28;20424;-69
2021/07/16 21:50:20;;;;;;;10.00;4.40;;;22.40;99.90;;;;;;5052381;28;20032;-71
2021/07/16 21:52:46;;;;;;;9.65;4.47;;;22.40;99.90;;;;;;5051760;28;20028;-71
2021/07/16 21:55:12;;;;;;;9.50;4.57;;;22.40;99.90;;;;;;5051780;28;20025;-69
2021/07/16 21:57:38;;;;;;;9.63;4.78;;;22.40;99.90;;;;;;5053467;28;20151;-69
2021/07/16 22:00:17;;;;;;;10.75;4.55;;;22.40;99.90;;;;;;5052550;28;20044;-72
2021/07/16 22:02:42;;;;;;;8.65;4.40;;;22.40;99.90;;;;;;5047220;28;20108;-70
2021/07/16 22:05:12;;;;;;;11.98;5.07;;;22.40;99.90;;;;;;5051713;28;20147;-70
2021/07/16 22:07:39;;;;;;;10.48;4.82;;;22.30;99.90;;;;;;5051302;28;20477;-70
2021/07/16 22:10:06;;;;;;;8.98;4.38;;;22.30;99.90;;;;;;5051121;28;20388;-69
2021/07/16 22:12:32;;;;;;;11.07;5.00;;;22.30;99.90;;;;;;5056929;28;20033;-71
2021/07/16 22:14:58;;;;;;;7.93;4.57;;;22.20;99.90;;;;;;5049797;28;20067;-70
2021/07/16 22:17:24;;;;;;;9.18;4.78;;;22.20;99.90;;;;;;5048905;28;20117;-70
2021/07/16 22:19:49;;;;;;;10.27;4.70;;;22.20;99.90;;;;;;5051069;28;20489;-69
2021/07/16 22:22:15;;;;;;;8.98;4.63;;;22.20;99.90;;;;;;5051590;28;20025;-73
2021/07/16 22:24:41;;;;;;;8.63;4.07;;;22.10;99.90;;;;;;5051278;28;20108;-71
2021/07/16 22:27:07;;;;;;;9.13;4.47;;;22.20;99.90;;;;;;5051968;28;20103;-70
2021/07/16 22:29:33;;;;;;;9.32;4.55;;;22.10;99.90;;;;;;5052181;28;20021;-72
2021/07/16 22:32:00;;;;;;;9.45;4.63;;;22.10;99.90;;;;;;5052695;28;20495;-71
2021/07/16 22:34:26;;;;;;;9.93;4.10;;;22.10;99.90;;;;;;5051570;28;20051;-71
2021/07/16 22:36:52;;;;;;;9.38;4.60;;;22.10;99.90;;;;;;5052274;28;20136;-72
2021/07/16 22:39:18;;;;;;;9.30;4.50;;;22.00;99.90;;;;;;5052834;28;20505;-73
2021/07/16 22:41:43;;;;;;;7.38;4.57;;;22.00;99.90;;;;;;5052367;28;20036;-70
2021/07/16 22:44:09;;;;;;;11.00;4.53;;;22.00;99.90;;;;;;5052847;28;20033;-70
2021/07/16 22:46:35;;;;;;;10.70;4.47;;;22.00;99.90;;;;;;5052866;28;20051;-72
2021/07/16 22:49:00;;;;;;;9.05;4.50;;;21.90;99.90;;;;;;5052229;28;20021;-70
2021/07/16 22:51:26;;;;;;;11.70;5.15;;;21.90;99.90;;;;;;5052745;28;20036;-73
2021/07/16 22:53:52;;;;;;;8.48;4.57;;;21.90;99.90;;;;;;5052303;28;20017;-71
2021/07/16 22:56:18;;;;;;;10.25;4.60;;;21.90;99.90;;;;;;5052175;28;20496;-70
2021/07/16 22:58:43;;;;;;;10.02;4.60;;;21.90;99.90;;;;;;5052065;28;20033;-73
2021/07/16 23:01:10;;;;;;;9.55;4.70;;;21.90;99.90;;;;;;5052574;28;20467;-73
2021/07/16 23:03:36;;;;;;;8.70;4.38;;;21.80;99.90;;;;;;5052455;28;20095;-71
2021/07/16 23:06:08;;;;;;;8.63;4.55;;;21.80;99.90;;;;;;5051845;28;20111;-72
2021/07/16 23:08:34;;;;;;;8.40;4.53;;;21.80;99.90;;;;;;5052117;28;20029;-71
2021/07/16 23:11:00;;;;;;;8.30;4.57;;;21.80;99.90;;;;;;5051719;28;20432;-72
2021/07/16 23:13:27;;;;;;;9.27;4.60;;;21.80;99.90;;;;;;5050571;28;20029;-74
2021/07/16 23:15:52;;;;;;;10.27;4.80;;;21.80;99.90;;;;;;5051283;28;20037;-72
2021/07/16 23:18:18;;;;;;;8.98;4.80;;;21.80;99.90;;;;;;5051823;28;20021;-72
2021/07/16 23:20:44;;;;;;;10.70;5.03;;;21.70;99.90;;;;;;5051399;28;20032;-71
2021/07/16 23:23:09;;;;;;;11.80;5.05;;;21.70;99.90;;;;;;5051993;28;20025;-69
2021/07/16 23:25:35;;;;;;;8.77;4.43;;;21.70;99.90;;;;;;5052050;28;20025;-70
2021/07/16 23:28:01;;;;;;;11.50;4.65;;;21.70;99.90;;;;;;5051543;28;20023;-72
2021/07/16 23:30:26;;;;;;;8.93;4.45;;;21.70;99.90;;;;;;5051730;28;20021;-74
2021/07/16 23:32:52;;;;;;;8.52;4.22;;;21.70;99.90;;;;;;5050128;28;20021;-70
2021/07/16 23:35:18;;;;;;;10.15;4.63;;;21.60;99.90;;;;;;5051526;28;20343;-73
2021/07/16 23:37:43;;;;;;;10.40;4.10;;;21.60;99.90;;;;;;5049984;28;20548;-70
2021/07/16 23:40:12;;;;;;;8.73;4.32;;;21.60;99.90;;;;;;5051746;28;20021;-72
2021/07/16 23:42:41;;;;;;;8.25;4.47;;;21.60;99.90;;;;;;5052065;28;20028;-71
2021/07/16 23:45:07;;;;;;;10.65;4.68;;;21.60;99.90;;;;;;5051834;28;20380;-70
2021/07/16 23:47:33;;;;;;;9.50;4.72;;;21.60;99.90;;;;;;5051477;28;20119;-70
2021/07/16 23:49:59;;;;;;;8.70;4.43;;;21.60;99.90;;;;;;5051268;28;20100;-72
2021/07/16 23:52:24;;;;;;;10.48;4.60;;;21.60;99.90;;;;;;5051606;28;20036;-73
2021/07/16 23:54:50;;;;;;;9.80;4.32;;;21.60;99.90;;;;;;5051103;28;20484;-74
2021/07/16 23:57:16;;;;;;;10.32;4.55;;;21.60;99.90;;;;;;5051376;28;20021;-72
2021/07/16 23:59:41;;;;;;;7.35;4.40;;;21.60;99.90;;;;;;5051095;28;20074;-69
